createdAt,value
2018-04-08T00:01:28.465Z,21.33
2018-04-08T00:03:56.048Z,23.17
2018-04-08T00:06:23.630Z,20.17
2018-04-08T00:08:51.249Z,21.30
2018-04-08T00:11:18.788Z,22.05
2018-04-08T00:13:47.097Z,20.90
2018-04-08T00:16:14.648Z,22.40
2018-04-08T00:18:42.214Z,23.40
2018-04-08T00:21:09.835Z,21.70
2018-04-08T00:23:37.407Z,22.65
2018-04-08T00:26:04.967Z,19.00
2018-04-08T00:28:32.541Z,24.67
2018-04-08T00:31:00.085Z,21.42
2018-04-08T00:33:27.660Z,21.70
2018-04-08T00:35:55.233Z,27.05
2018-04-08T00:38:22.795Z,23.45
2018-04-08T00:40:50.385Z,23.10
2018-04-08T00:43:18.687Z,24.20
2018-04-08T00:45:46.271Z,26.42
2018-04-08T00:48:13.836Z,28.08
2018-04-08T00:50:41.385Z,28.55
2018-04-08T00:53:08.975Z,31.23
2018-04-08T00:55:36.525Z,27.48
2018-04-08T00:58:04.080Z,27.30
2018-04-08T01:00:31.630Z,30.02
2018-04-08T01:02:59.228Z,24.48
2018-04-08T01:05:26.828Z,27.62
2018-04-08T01:07:55.230Z,25.70
2018-04-08T01:10:23.544Z,30.62
2018-04-08T01:12:51.083Z,31.50
2018-04-08T01:15:18.658Z,30.75
2018-04-08T01:17:46.261Z,24.55
2018-04-08T01:20:13.837Z,28.42
2018-04-08T01:22:41.410Z,25.80
2018-04-08T01:25:08.988Z,22.60
2018-04-08T01:27:37.347Z,32.45
2018-04-08T01:30:04.941Z,26.95
2018-04-08T01:32:32.504Z,26.95
2018-04-08T01:35:00.826Z,27.70
2018-04-08T01:37:28.417Z,25.55
2018-04-08T01:39:55.989Z,30.95
2018-04-08T01:42:23.561Z,28.60
2018-04-08T01:44:51.123Z,31.20
2018-04-08T01:47:18.687Z,28.67
2018-04-08T01:49:46.264Z,28.80
2018-04-08T01:52:14.600Z,29.52
2018-04-08T01:54:42.153Z,27.15
2018-04-08T01:57:09.732Z,27.40
2018-04-08T01:59:37.284Z,30.17
2018-04-08T02:02:04.878Z,29.23
2018-04-08T02:04:32.459Z,33.67
2018-04-08T02:07:00.080Z,28.55
2018-04-08T02:09:27.684Z,32.53
2018-04-08T02:11:55.233Z,24.87
2018-04-08T02:14:22.771Z,26.15
2018-04-08T02:16:50.317Z,30.12
2018-04-08T02:19:17.880Z,26.05
2018-04-08T02:21:45.419Z,29.08
2018-04-08T02:24:13.771Z,29.17
2018-04-08T02:26:42.105Z,26.98
2018-04-08T02:29:09.668Z,24.60
2018-04-08T02:31:37.245Z,27.58
2018-04-08T02:34:04.818Z,31.98
2018-04-08T02:36:32.370Z,35.22
2018-04-08T02:38:59.966Z,32.25
2018-04-08T02:41:27.526Z,27.15
2018-04-08T02:43:55.080Z,40.58
2018-04-08T02:46:22.648Z,36.00
2018-04-08T02:48:50.207Z,33.67
2018-04-08T02:51:17.755Z,36.15
2018-04-08T02:53:45.314Z,37.17
2018-04-08T02:56:12.929Z,34.60
2018-04-08T02:58:40.498Z,36.15
2018-04-08T03:01:08.242Z,32.70
2018-04-08T03:03:35.799Z,36.45
2018-04-08T03:06:03.381Z,36.40
2018-04-08T03:08:30.944Z,41.88
2018-04-08T03:10:58.714Z,34.92
2018-04-08T03:13:27.068Z,34.83
2018-04-08T03:15:54.635Z,37.45
2018-04-08T03:18:22.205Z,45.22
2018-04-08T03:20:49.785Z,35.03
2018-04-08T03:23:18.146Z,36.85
2018-04-08T03:25:45.720Z,35.03
2018-04-08T03:28:13.299Z,41.08
2018-04-08T03:30:40.870Z,35.97
2018-04-08T03:33:08.416Z,39.90
2018-04-08T03:35:35.957Z,39.05
2018-04-08T03:38:03.509Z,38.17
2018-04-08T03:40:31.053Z,35.90
2018-04-08T03:42:59.382Z,49.58
2018-04-08T03:45:26.957Z,37.45
2018-04-08T03:47:54.504Z,36.22
2018-04-08T03:50:22.052Z,34.00
2018-04-08T03:52:49.665Z,37.63
2018-04-08T03:55:17.263Z,33.03
2018-04-08T03:57:44.813Z,36.15
2018-04-08T04:00:12.385Z,38.97
2018-04-08T04:02:39.948Z,38.80
2018-04-08T04:05:08.278Z,36.15
2018-04-08T04:07:35.930Z,33.13
2018-04-08T04:10:03.497Z,38.67
2018-04-08T04:12:31.074Z,34.92
2018-04-08T04:14:58.647Z,35.05
2018-04-08T04:17:26.232Z,36.25
2018-04-08T04:20:05.628Z,32.00
2018-04-08T04:22:44.962Z,31.48
2018-04-08T04:25:25.190Z,34.40
2018-04-08T04:27:52.767Z,35.08
2018-04-08T04:30:20.346Z,32.15
2018-04-08T04:32:47.915Z,31.05
2018-04-08T04:35:15.483Z,28.67
2018-04-08T04:37:43.109Z,31.55
2018-04-08T04:40:11.417Z,30.35
2018-04-08T04:42:38.985Z,28.10
2018-04-08T04:45:06.547Z,32.40
2018-04-08T04:47:34.101Z,32.25
2018-04-08T04:50:01.664Z,24.17
2018-04-08T04:52:29.234Z,24.33
2018-04-08T04:54:56.806Z,33.65
2018-04-08T04:57:24.377Z,27.08
2018-04-08T04:59:51.978Z,26.00
2018-04-08T05:02:19.549Z,34.78
2018-04-08T05:04:47.114Z,27.60
2018-04-08T05:07:15.480Z,29.42
2018-04-08T05:09:43.018Z,30.55
2018-04-08T05:12:10.588Z,32.58
2018-04-08T05:14:38.136Z,28.65
2018-04-08T05:17:05.698Z,27.08
2018-04-08T05:19:33.259Z,27.25
2018-04-08T05:22:00.812Z,25.05
2018-04-08T05:24:28.351Z,27.02
2018-04-08T05:26:56.674Z,27.33
2018-04-08T05:29:24.226Z,25.85
2018-04-08T05:31:51.802Z,26.55
2018-04-08T05:34:19.352Z,25.80
2018-04-08T05:36:46.915Z,28.42
2018-04-08T05:39:14.467Z,22.98
2018-04-08T05:41:42.801Z,24.80
2018-04-08T05:44:10.356Z,21.65
2018-04-08T05:46:37.902Z,21.75
2018-04-08T05:49:05.473Z,24.33
2018-04-08T05:51:33.116Z,24.95
2018-04-08T05:54:00.688Z,37.30
2018-04-08T05:56:28.282Z,21.33
2018-04-08T05:58:55.855Z,25.88
2018-04-08T06:01:23.453Z,21.25
2018-04-08T06:03:51.810Z,29.10
2018-04-08T06:06:19.489Z,20.80
2018-04-08T06:08:47.846Z,18.60
2018-04-08T06:11:15.392Z,22.37
2018-04-08T06:13:42.965Z,23.60
2018-04-08T06:16:10.545Z,24.80
2018-04-08T06:18:38.107Z,24.92
2018-04-08T06:21:05.651Z,22.48
2018-04-08T06:23:33.187Z,21.37
2018-04-08T06:26:00.762Z,21.30
2018-04-08T06:28:28.336Z,23.58
2018-04-08T06:30:55.920Z,23.20
2018-04-08T06:33:23.456Z,22.05
2018-04-08T06:35:51.028Z,20.92
2018-04-08T06:38:18.647Z,24.15
2018-04-08T06:40:46.249Z,21.23
2018-04-08T06:43:13.832Z,23.33
2018-04-08T06:45:41.381Z,25.75
2018-04-08T06:48:08.973Z,23.33
2018-04-08T06:50:36.580Z,20.77
2018-04-08T06:53:04.901Z,22.23
2018-04-08T06:55:32.473Z,21.70
2018-04-08T06:58:00.063Z,21.48
2018-04-08T07:00:27.645Z,22.55
2018-04-08T07:02:55.987Z,20.00
2018-04-08T07:05:23.572Z,20.10
2018-04-08T07:07:51.121Z,17.50
2018-04-08T07:10:18.664Z,20.05
2018-04-08T07:12:46.217Z,22.83
2018-04-08T07:15:13.809Z,24.25
2018-04-08T07:17:41.392Z,24.17
2018-04-08T07:20:08.991Z,22.17
2018-04-08T07:22:37.312Z,16.80
2018-04-08T07:25:04.887Z,17.87
2018-04-08T07:27:32.465Z,18.15
2018-04-08T07:30:00.045Z,18.48
2018-04-08T07:32:27.601Z,17.33
2018-04-08T07:34:55.150Z,16.37
2018-04-08T07:37:23.487Z,18.73
2018-04-08T07:39:51.051Z,17.60
2018-04-08T07:42:18.621Z,15.85
2018-04-08T07:44:46.195Z,20.65
2018-04-08T07:47:13.752Z,16.55
2018-04-08T07:49:41.346Z,17.45
2018-04-08T07:52:08.905Z,15.40
2018-04-08T07:54:36.444Z,18.45
2018-04-08T07:57:04.030Z,16.33
2018-04-08T07:59:31.597Z,17.95
2018-04-08T08:01:59.178Z,16.20
2018-04-08T08:04:29.286Z,18.52
2018-04-08T08:06:57.139Z,16.42
2018-04-08T08:09:24.731Z,16.55
2018-04-08T08:11:52.286Z,15.80
2018-04-08T08:14:19.858Z,15.40
2018-04-08T08:16:47.437Z,18.60
2018-04-08T08:19:14.982Z,24.02
2018-04-08T08:21:42.535Z,21.02
2018-04-08T08:24:10.440Z,20.05
2018-04-08T08:26:37.992Z,19.33
2018-04-08T08:29:05.600Z,20.02
2018-04-08T08:31:33.910Z,19.70
2018-04-08T08:34:01.485Z,17.02
2018-04-08T08:36:29.057Z,16.85
2018-04-08T08:38:56.608Z,15.48
2018-04-08T08:41:24.168Z,21.15
2018-04-08T08:43:51.716Z,21.67
2018-04-08T08:46:19.540Z,19.55
2018-04-08T08:48:47.158Z,23.92
2018-04-08T08:51:14.736Z,16.83
2018-04-08T08:53:42.324Z,18.95
2018-04-08T08:56:09.903Z,19.45
2018-04-08T08:58:37.466Z,15.05
2018-04-08T09:13:20.797Z,18.80
2018-04-08T09:15:48.385Z,16.40
2018-04-08T09:30:52.880Z,18.40
2018-04-08T09:33:21.732Z,19.90
2018-04-08T09:35:49.868Z,23.40
2018-04-08T11:19:20.742Z,48.20
2018-04-08T12:57:38.832Z,60.85
2018-04-08T13:00:06.389Z,60.23
2018-04-08T13:02:33.978Z,55.20
2018-04-08T13:05:01.569Z,54.65
2018-04-08T13:07:29.440Z,55.30
2018-04-08T13:09:57.322Z,56.25
2018-04-08T13:12:25.344Z,72.53
2018-04-08T13:44:19.411Z,47.20
2018-04-08T13:46:46.962Z,47.00
2018-04-08T13:49:15.315Z,239.38
2018-04-08T14:13:46.902Z,57.70
2018-04-08T14:26:03.714Z,73.37
2018-04-08T14:35:52.672Z,70.65
2018-04-08T15:22:31.036Z,54.25
2018-04-08T15:24:58.589Z,61.53
2018-04-08T15:32:22.054Z,54.13
2018-04-08T15:34:49.633Z,59.97
2018-04-08T15:37:17.364Z,62.33
2018-04-08T15:39:44.911Z,59.95
2018-04-08T15:42:12.508Z,56.78
2018-04-08T15:44:40.834Z,61.75
2018-04-08T15:47:09.161Z,60.97
2018-04-08T15:49:36.717Z,60.25
2018-04-08T15:52:04.309Z,54.17
2018-04-08T15:54:31.872Z,61.67
2018-04-08T15:56:59.455Z,60.22
2018-04-08T15:59:27.805Z,63.87
2018-04-08T16:01:55.385Z,59.88
2018-04-08T16:04:23.005Z,59.95
2018-04-08T16:06:50.588Z,58.47
2018-04-08T16:09:18.155Z,66.87
2018-04-08T16:11:45.753Z,66.50
2018-04-08T16:14:13.315Z,61.03
2018-04-08T16:16:40.891Z,64.93
2018-04-08T16:19:08.459Z,59.75
2018-04-08T16:21:36.786Z,61.25
2018-04-08T16:24:04.349Z,62.13
2018-04-08T16:26:31.937Z,59.42
2018-04-08T16:28:59.535Z,57.40
2018-04-08T16:31:27.889Z,65.55
2018-04-08T16:33:55.496Z,62.58
2018-04-08T16:36:23.854Z,58.60
2018-04-08T16:41:18.560Z,58.20
2018-04-08T16:43:46.103Z,52.30
2018-04-08T16:46:13.676Z,55.65
2018-04-08T16:48:41.229Z,58.35
2018-04-08T17:03:26.036Z,47.20
2018-04-08T17:13:15.681Z,48.00
2018-04-08T17:23:06.128Z,49.90
2018-04-08T17:25:33.705Z,57.50
2018-04-08T17:35:22.688Z,49.25
2018-04-08T17:37:50.257Z,50.40
2018-04-08T17:40:17.841Z,52.27
2018-04-08T17:42:45.450Z,57.15
2018-04-08T17:45:13.802Z,54.25
2018-04-08T17:47:43.097Z,47.88
2018-04-08T17:50:10.658Z,50.30
2018-04-08T17:52:38.237Z,53.10
2018-04-08T17:55:05.811Z,54.28
2018-04-08T17:57:34.163Z,56.03
2018-04-08T18:00:01.754Z,55.97
2018-04-08T18:02:29.332Z,53.53
2018-04-08T18:04:57.682Z,54.83
2018-04-08T18:07:25.259Z,56.10
2018-04-08T18:09:52.852Z,55.35
2018-04-08T18:12:21.198Z,56.25
2018-04-08T18:14:48.746Z,58.00
2018-04-08T18:17:16.288Z,61.13
2018-04-08T18:19:43.854Z,75.10
2018-04-08T18:22:11.580Z,88.87
2018-04-08T18:24:39.976Z,93.35
2018-04-08T18:27:08.322Z,80.22
2018-04-08T18:29:35.876Z,96.43
2018-04-08T18:32:03.415Z,79.10
2018-04-08T18:34:30.997Z,71.95
2018-04-08T18:36:58.554Z,72.10
2018-04-08T18:39:26.131Z,72.62
2018-04-08T18:41:53.711Z,82.88
2018-04-08T18:44:21.257Z,79.18
2018-04-08T18:46:48.837Z,93.90
2018-04-08T18:49:16.400Z,89.75
2018-04-08T18:51:43.965Z,86.10
2018-04-08T18:54:11.528Z,81.28
2018-04-08T18:56:39.131Z,82.57
2018-04-08T18:59:07.431Z,82.23
2018-04-08T19:01:34.987Z,79.20
2018-04-08T19:04:02.546Z,77.18
2018-04-08T19:06:30.112Z,73.40
2018-04-08T19:08:57.713Z,71.45
2018-04-08T19:11:25.292Z,73.10
2018-04-08T19:13:52.878Z,71.30
2018-04-08T19:16:21.233Z,73.25
2018-04-08T19:18:48.865Z,73.43
2018-04-08T19:21:16.417Z,74.55
2018-04-08T19:23:44.069Z,71.35
2018-04-08T19:26:13.079Z,82.07
2018-04-08T19:28:40.628Z,74.45
2018-04-08T19:31:09.263Z,76.25
2018-04-08T19:33:36.836Z,69.12
2018-04-08T19:36:04.464Z,70.82
2018-04-08T19:38:32.021Z,77.00
2018-04-08T19:41:00.332Z,79.95
2018-04-08T19:43:27.898Z,72.50
2018-04-08T19:45:57.935Z,74.35
2018-04-08T19:48:25.492Z,73.55
2018-04-08T19:50:53.028Z,71.93
2018-04-08T19:53:20.573Z,71.22
2018-04-08T19:55:48.880Z,73.72
2018-04-08T19:58:16.453Z,69.70
2018-04-08T20:00:44.005Z,72.40
2018-04-08T20:03:11.605Z,80.82
2018-04-08T20:05:39.146Z,86.45
2018-04-08T20:08:06.693Z,85.65
2018-04-08T20:10:34.274Z,116.47
2018-04-08T20:13:01.887Z,112.62
2018-04-08T20:15:29.473Z,108.50
2018-04-08T20:17:57.084Z,98.25
2018-04-08T20:20:24.671Z,90.40
2018-04-08T20:22:52.249Z,93.03
2018-04-08T20:25:20.600Z,92.45
2018-04-08T20:27:48.164Z,92.25
2018-04-08T20:30:15.713Z,90.12
2018-04-08T20:32:43.377Z,89.93
2018-04-08T20:35:10.933Z,117.97
2018-04-08T20:37:38.537Z,115.22
2018-04-08T20:40:06.120Z,107.55
2018-04-08T20:42:34.440Z,106.87
2018-04-08T20:45:01.994Z,101.50
2018-04-08T20:47:29.569Z,102.00
2018-04-08T20:49:57.152Z,99.97
2018-04-08T20:52:24.728Z,99.62
2018-04-08T20:54:52.287Z,95.75
2018-04-08T20:57:19.868Z,108.68
2018-04-08T20:59:47.412Z,110.75
2018-04-08T21:02:14.987Z,124.40
2018-04-08T21:04:42.536Z,142.37
2018-04-08T21:07:10.149Z,140.75
2018-04-08T21:09:38.514Z,133.80
2018-04-08T21:12:06.068Z,138.98
2018-04-08T21:14:33.641Z,130.05
2018-04-08T21:17:01.220Z,124.03
2018-04-08T21:19:29.574Z,111.45
2018-04-08T21:21:57.133Z,113.55
2018-04-08T21:24:24.781Z,109.43
2018-04-08T21:26:53.141Z,109.63
2018-04-08T21:29:21.381Z,94.47
2018-04-08T21:31:48.933Z,107.50
2018-04-08T21:34:16.521Z,109.55
2018-04-08T21:36:44.885Z,134.35
2018-04-08T21:39:12.426Z,141.05
2018-04-08T21:41:39.970Z,135.15
2018-04-08T21:44:07.570Z,133.95
2018-04-08T21:46:35.170Z,122.82
2018-04-08T21:49:03.513Z,122.07
2018-04-08T21:51:31.082Z,111.15
2018-04-08T21:53:58.694Z,112.53
2018-04-08T21:56:27.052Z,104.93
2018-04-08T21:58:54.634Z,109.37
2018-04-08T22:01:22.957Z,107.30
2018-04-08T22:03:50.499Z,102.10
2018-04-08T22:06:18.039Z,112.65
2018-04-08T22:08:46.346Z,110.97
2018-04-08T22:11:13.932Z,114.57
2018-04-08T22:13:41.525Z,117.75
2018-04-08T22:16:09.068Z,124.95
2018-04-08T22:18:36.648Z,109.82
2018-04-08T22:21:04.201Z,135.23
2018-04-08T22:23:31.778Z,126.03
2018-04-08T22:25:59.360Z,144.70
2018-04-08T22:28:26.903Z,120.43
2018-04-08T22:30:54.439Z,123.00
2018-04-08T22:33:21.992Z,120.57
2018-04-08T22:35:49.539Z,118.30
2018-04-08T22:38:17.898Z,136.35
2018-04-08T22:40:46.228Z,121.43
2018-04-08T22:43:13.801Z,111.85
2018-04-08T22:45:41.347Z,103.95
2018-04-08T22:48:08.932Z,120.90
2018-04-08T22:50:36.473Z,108.30
2018-04-08T22:53:04.102Z,115.10
2018-04-08T22:55:31.645Z,121.70
2018-04-08T22:57:59.226Z,134.63
2018-04-08T23:00:26.813Z,129.55
2018-04-08T23:02:55.127Z,117.05
2018-04-08T23:05:22.695Z,113.57
2018-04-08T23:07:50.293Z,109.87
2018-04-08T23:10:17.878Z,120.80
2018-04-08T23:12:46.201Z,107.07
2018-04-08T23:15:13.764Z,110.03
2018-04-08T23:17:41.344Z,104.50
2018-04-08T23:20:09.700Z,105.78
2018-04-08T23:22:37.321Z,122.97
2018-04-08T23:25:04.883Z,109.47
2018-04-08T23:27:32.427Z,111.62
2018-04-08T23:30:00.001Z,116.20
2018-04-08T23:32:27.581Z,110.68
2018-04-08T23:34:55.160Z,136.70
2018-04-08T23:37:23.481Z,129.80
2018-04-08T23:39:51.034Z,135.70
2018-04-08T23:42:18.609Z,146.13
2018-04-08T23:44:46.249Z,152.40
2018-04-08T23:47:13.807Z,130.50
2018-04-08T23:49:42.161Z,119.53
2018-04-08T23:52:09.746Z,121.75
2018-04-08T23:54:38.056Z,126.78
2018-04-08T23:57:05.610Z,113.60
2018-04-08T23:59:33.249Z,125.75
